Latest Coastal Weather Observations for Charles Point

IDD60701

Issued at 2:21 pm CST Tuesday 7 July 2015 (issued every 10 minutes, with the page automatically refreshed every 10 minutes)

About coastal observations | Map of coastal stations | Coastal observations for NT | Marine services | Other Formats
Station Details ID: 014031 Name: CHARLES POINT Lat: -12.39 Lon: 130.63 Height: 14.0 m
Data from the previous 72 hours. | See also: Recent months for locations in Northern Territory
Date/Time
CST
Temp

°C
Wind Pressure Rain
since 9am
mm
Weather Cloud Vis
km
Sea
Height
m
Swell
Dir
 
Speed
knots
Gust
knots
hPa Trend Height
m
Period
s
Dir
07/02:00pm 27.5 NE 12 17 1011.5 - 0.0 - - - - - - -
07/01:30pm 27.8 NE 13 16 1011.8 - 0.0 - - - - - - -
07/01:00pm 28.1 ENE 10 15 1012.1 - 0.0 - - - - - - -
07/12:30pm 28.1 ENE 10 17 1012.5 - 0.0 - - - - - - -
07/12:00pm 27.9 ENE 8 14 1012.9 - 0.0 - - - - - - -
07/11:30am 27.2 ENE 7 13 1013.3 - 0.0 - - - - - - -
07/11:00am 26.3 E 7 12 1013.8 - 0.0 - - - - - - -
07/10:30am 26.0 E 8 13 1014.1 - 0.0 - - - - - - -
07/10:00am 25.4 E 9 14 1014.1 - 0.0 - - - - - - -
07/09:30am 24.8 E 7 15 1014.2 - 0.0 - - - - - - -
07/09:00am 24.2 E 7 12 1014.2 - 0.0 - - - - - - -
07/08:30am 24.3 E 9 16 1013.9 - 0.0 - - - - - - -
07/08:00am 24.2 E 10 16 1013.4 - 0.0 - - - - - - -
07/07:30am 24.2 E 9 14 1013.4 - 0.0 - - - - - - -
07/07:00am 24.0 ESE 6 15 1013.3 - 0.0 - - - - - - -
07/06:30am 23.2 SE 4 6 1012.9 - 0.0 - - - - - - -
07/06:00am 23.2 SE 4 7 1012.6 - 0.0 - - - - - - -
07/05:30am 23.2 SSE 4 6 1012.8 - 0.0 - - - - - - -
07/05:00am 23.4 SE 5 7 1012.6 - 0.0 - - - - - - -
07/04:30am 22.9 SSE 4 6 1012.1 - 0.0 - - - - - - -
07/04:00am 22.6 SSE 4 6 1012.0 - 0.0 - - - - - - -
07/03:30am 22.6 S 5 6 1011.9 - 0.0 - - - - - - -
07/03:00am 22.5 S 5 7 1011.8 - 0.0 - - - - - - -
07/02:30am 22.7 S 5 7 1011.9 - 0.0 - - - - - - -
07/02:00am 22.8 S 4 7 1012.0 - 0.0 - - - - - - -
07/01:30am 22.8 SSE 5 6 1012.1 - 0.0 - - - - - - -
07/01:00am 23.0 S 4 6 1012.4 - 0.0 - - - - - - -
07/12:30am 23.0 S 4 5 1012.4 - 0.0 - - - - - - -
07/12:00am 23.3 S 4 5 1012.7 - 0.0 - - - - - - -
 
Date/Time
CST
Temp

°C
Wind Pressure Rain
since 9am
mm
Weather Cloud Vis
km
Sea
Height
m
Swell
Dir
 
Speed
knots
Gust
knots
hPa Trend Height
m
Period
s
Dir
06/11:30pm 23.6 S 4 5 1012.8 - 0.0 - - - - - - -
06/11:00pm 24.1 CALM 0 0 1012.7 - 0.0 - - - - - - -
06/10:30pm 25.0 NE 2 4 1012.7 - 0.0 - - - - - - -
06/10:00pm 26.0 NE 4 6 1012.6 - 0.0 - - - - - - -
06/09:30pm 26.1 NE 6 8 1012.4 - 0.0 - - - - - - -
06/09:00pm 26.1 NE 6 9 1012.2 - 0.0 - - - - - - -
06/08:30pm 26.1 NE 7 9 1012.1 - 0.0 - - - - - - -
06/08:00pm 26.1 NE 8 12 1011.8 - 0.0 - - - - - - -
06/07:30pm 26.2 NE 9 13 1011.5 - 0.0 - - - - - - -
06/07:00pm 26.2 NE 9 12 1011.2 - 0.0 - - - - - - -
06/06:30pm 26.3 NE 9 12 1011.0 - 0.0 - - - - - - -
06/06:00pm 26.7 NE 11 15 1010.7 - 0.0 - - - - - - -
06/05:30pm 26.6 NNE 13 18 1010.5 - 0.0 - - - - - - -
06/05:00pm 26.8 NNE 11 15 1010.5 - 0.0 - - - - - - -
06/04:30pm 27.2 NNE 12 17 1010.4 - 0.0 - - - - - - -
06/04:00pm 27.2 NNE 10 17 1010.5 - 0.0 - - - - - - -
06/03:30pm 27.9 NNE 13 17 1010.6 - 0.0 - - - - - - -
06/03:00pm 27.6 NNE 9 13 1010.6 - 0.0 - - - - - - -
06/02:30pm 28.6 NE 6 8 1010.8 - 0.0 - - - - - - -
06/02:00pm 28.7 NE 8 11 1011.3 - 0.0 - - - - - - -
06/01:30pm 29.0 ENE 9 13 1011.6 - 0.0 - - - - - - -
06/01:00pm 29.3 ENE 6 12 1011.9 - 0.0 - - - - - - -
06/12:30pm 29.0 E 7 11 1012.5 - 0.0 - - - - - - -
06/12:00pm 28.5 ENE 7 11 1013.0 - 0.0 - - - - - - -
06/11:30am 28.3 E 7 13 1013.2 - 0.0 - - - - - - -
06/11:00am 27.2 E 10 15 1013.6 - 0.0 - - - - - - -
06/10:30am 27.0 E 10 15 1013.8 - 0.0 - - - - - - -
06/10:00am 26.6 E 9 15 1013.9 - 0.0 - - - - - - -
06/09:30am 26.1 E 9 15 1014.0 - 0.0 - - - - - - -
06/09:00am 25.6 E 9 15 1013.9 - 0.0 - - - - - - -
06/08:30am 25.1 E 8 17 1013.8 - 0.0 - - - - - - -
06/08:00am 24.8 E 7 11 1013.6 - 0.0 - - - - - - -
06/07:30am 24.3 ENE 7 13 1013.4 - 0.0 - - - - - - -
06/07:00am 24.3 E 6 12 1012.8 - 0.0 - - - - - - -
06/06:30am 24.4 E 7 14 1012.4 - 0.0 - - - - - - -
06/06:00am 24.5 ENE 6 10 1012.6 - 0.0 - - - - - - -
06/05:30am 22.0 ESE 3 5 1012.8 - 0.0 - - - - - - -
06/05:00am 20.8 N 1 2 1012.8 - 0.0 - - - - - - -
06/04:30am 20.3 CALM 0 2 1012.3 - 0.0 - - - - - - -
06/04:00am 20.2 CALM 0 0 1012.3 - 0.0 - - - - - - -
06/03:30am 20.5 CALM 0 0 1012.3 - 0.0 - - - - - - -
06/03:00am 21.0 CALM 0 0 1012.5 - 0.0 - - - - - - -
06/02:30am 22.1 N 1 2 1012.7 - 0.0 - - - - - - -
06/02:00am 22.1 CALM 0 0 1012.5 - 0.0 - - - - - - -
06/01:30am 23.3 S 4 7 1012.3 - 0.0 - - - - - - -
06/01:00am 23.7 S 5 9 1012.5 - 0.0 - - - - - - -
06/12:30am 23.6 S 4 6 1012.6 - 0.0 - - - - - - -
06/12:00am 23.1 SSW 3 4 1012.7 - 0.0 - - - - - - -
 
Date/Time
CST
Temp

°C
Wind Pressure Rain
since 9am
mm
Weather Cloud Vis
km
Sea
Height
m
Swell
Dir
 
Speed
knots
Gust
knots
hPa Trend Height
m
Period
s
Dir
05/11:30pm 23.3 SSW 3 4 1013.1 - 0.0 - - - - - - -
05/11:00pm 23.2 SW 2 2 1013.3 - 0.0 - - - - - - -
05/10:30pm 23.8 SW 2 3 1013.6 - 0.0 - - - - - - -
05/10:00pm 24.1 CALM 0 2 1013.7 - 0.0 - - - - - - -
05/09:30pm 24.4 CALM 0 0 1013.7 - 0.0 - - - - - - -
05/09:00pm 24.5 CALM 0 0 1013.5 - 0.0 - - - - - - -
05/08:30pm 24.8 CALM 0 1 1013.4 - 0.0 - - - - - - -
05/08:00pm 25.1 CALM 0 0 1013.1 - 0.0 - - - - - - -
05/07:30pm 25.7 NW 2 4 1012.6 - 0.0 - - - - - - -
05/07:00pm 25.8 NNW 3 4 1012.6 - 0.0 - - - - - - -
05/06:30pm 25.7 NNW 5 6 1012.6 - 0.0 - - - - - - -
05/06:00pm 25.7 N 3 5 1012.3 - 0.0 - - - - - - -
05/05:30pm 25.8 NNW 3 5 1012.2 - 0.0 - - - - - - -
05/05:00pm 25.9 NNW 5 6 1012.1 - 0.0 - - - - - - -
05/04:30pm 26.7 NNW 5 7 1012.1 - 0.0 - - - - - - -
05/04:00pm 27.6 NNW 5 6 1012.0 - 0.0 - - - - - - -
05/03:30pm 27.0 N 5 6 1012.2 - 0.0 - - - - - - -
05/03:00pm 26.9 N 5 6 1012.5 - 0.0 - - - - - - -
05/02:30pm 27.6 NNE 4 7 1012.9 - 0.0 - - - - - - -
05/02:00pm 27.1 NNE 5 7 1013.4 - 0.0 - - - - - - -
05/01:30pm 26.9 NNE 5 7 1013.7 - 0.0 - - - - - - -
05/01:00pm 28.4 NE 4 5 1014.1 - 0.0 - - - - - - -
05/12:30pm 28.2 ENE 4 7 1014.4 - 0.0 - - - - - - -
05/12:00pm 27.5 ENE 4 7 1014.8 - 0.0 - - - - - - -
05/11:30am 27.2 ENE 4 7 1015.2 - 0.0 - - - - - - -
05/11:00am 26.6 ESE 5 9 1015.3 - 0.0 - - - - - - -
05/10:30am 25.9 SE 5 7 1015.2 - 0.0 - - - - - - -
05/10:00am 24.5 SE 4 8 1015.2 - 0.0 - - - - - - -
05/09:30am 23.7 SSE 5 10 1015.3 - 0.0 - - - - - - -
05/09:00am 22.1 SSE 5 8 1015.4 - 0.0 - - - - - - -
05/08:30am 21.1 SE 4 7 1015.5 - 0.0 - - - - - - -
05/08:00am 20.1 SSE 6 10 1015.2 - 0.0 - - - - - - -
05/07:30am 19.4 SSE 6 9 1014.9 - 0.0 - - - - - - -
05/07:00am 19.6 S 6 9 1014.4 - 0.0 - - - - - - -
05/06:30am 19.4 S 6 8 1014.0 - 0.0 - - - - - - -
05/06:00am 19.2 S 6 8 1013.8 - 0.0 - - - - - - -
05/05:30am 18.5 S 5 7 1013.6 - 0.0 - - - - - - -
05/05:00am 18.8 S 4 6 1013.4 - 0.0 - - - - - - -
05/04:30am 19.5 S 5 7 1013.3 - 0.0 - - - - - - -
05/04:00am 19.3 S 4 5 1013.3 - 0.0 - - - - - - -
05/03:30am 19.1 SSW 1 2 1013.3 - 0.0 - - - - - - -
05/03:00am 19.9 SSW 3 4 1013.1 - 0.0 - - - - - - -
05/02:30am 19.9 SW 3 5 1013.2 - 0.0 - - - - - - -
05/02:00am 19.4 SW 3 4 1013.4 - 0.0 - - - - - - -
05/01:30am 19.6 SW 3 4 1013.6 - 0.0 - - - - - - -
05/01:00am 19.3 SW 3 4 1013.8 - 0.0 - - - - - - -
05/12:30am 19.2 SW 2 3 1013.9 - 0.0 - - - - - - -
05/12:00am 19.4 WSW 2 3 1013.9 - 0.0 - - - - - - -
 
Date/Time
CST
Temp

°C
Wind Pressure Rain
since 9am
mm
Weather Cloud Vis
km
Sea
Height
m
Swell
Dir
 
Speed
knots
Gust
knots
hPa Trend Height
m
Period
s
Dir
04/11:30pm 19.6 WSW 2 3 1013.9 - 0.0 - - - - - - -
04/11:00pm 20.2 WSW 2 3 1014.0 - 0.0 - - - - - - -
04/10:30pm 19.9 WSW 2 3 1014.1 - 0.0 - - - - - - -
04/10:00pm 20.1 WSW 2 3 1014.2 - 0.0 - - - - - - -
04/09:30pm 20.5 W 2 3 1014.0 - 0.0 - - - - - - -
04/09:00pm 21.1 W 2 4 1013.8 - 0.0 - - - - - - -
04/08:30pm 21.3 WSW 2 3 1013.4 - 0.0 - - - - - - -
04/08:00pm 21.8 WSW 2 3 1013.0 - 0.0 - - - - - - -
04/07:30pm 22.5 WSW 2 3 1012.8 - 0.0 - - - - - - -
04/07:00pm 23.0 WSW 2 4 1012.6 - 0.0 - - - - - - -
04/06:30pm 24.8 W 1 2 1012.3 - 0.0 - - - - - - -
04/06:00pm 26.7 NNW 3 5 1011.9 - 0.0 - - - - - - -
04/05:30pm 26.8 N 4 5 1011.7 - 0.0 - - - - - - -
04/05:00pm 26.4 N 7 9 1011.5 - 0.0 - - - - - - -
04/04:30pm 26.8 NNE 6 10 1011.2 - 0.0 - - - - - - -
04/04:00pm 26.9 NNE 6 10 1011.2 - 0.0 - - - - - - -
04/03:30pm 27.4 NNE 7 11 1011.2 - 0.0 - - - - - - -
04/03:00pm 27.9 NNE 7 11 1011.5 - 0.0 - - - - - - -
04/02:30pm 28.2 NNE 7 9 1012.0 - 0.0 - - - - - - -

Other Formats:

Comma delimited format used in spreadsheet applications
http://www.bom.gov.au/fwo/IDD60701/IDD60701.99510.axf

JavaScript Object Notation format (JSON) in row-major order
http://www.bom.gov.au/fwo/IDD60701/IDD60701.99510.json